createdAt,value
2018-07-07T00:00:11.196Z,14.17
2018-07-07T00:02:40.177Z,13.20
2018-07-07T00:05:09.188Z,14.00
2018-07-07T00:07:38.959Z,13.87
2018-07-07T00:10:07.774Z,13.67
2018-07-07T00:12:36.171Z,13.23
2018-07-07T00:15:04.633Z,14.50
2018-07-07T00:17:33.008Z,13.40
2018-07-07T00:20:01.391Z,15.13
2018-07-07T00:22:29.763Z,14.90
2018-07-07T00:24:58.126Z,14.60
2018-07-07T00:27:26.513Z,14.80
2018-07-07T00:29:54.889Z,14.07
2018-07-07T00:32:23.301Z,13.60
2018-07-07T00:34:51.700Z,14.90
2018-07-07T00:37:21.236Z,15.73
2018-07-07T00:39:49.615Z,14.93
2018-07-07T00:42:17.985Z,14.03
2018-07-07T00:44:46.362Z,15.50
2018-07-07T00:47:14.712Z,15.87
2018-07-07T00:49:43.105Z,15.50
2018-07-07T00:52:11.475Z,15.57
2018-07-07T00:54:39.849Z,15.07
2018-07-07T00:57:08.239Z,13.70
2018-07-07T00:59:36.589Z,14.50
2018-07-07T01:02:09.216Z,14.10
2018-07-07T01:04:37.820Z,14.00
2018-07-07T01:07:06.174Z,15.63
2018-07-07T01:09:34.509Z,15.03
2018-07-07T01:12:02.879Z,15.57
2018-07-07T01:14:31.262Z,14.73
2018-07-07T01:16:59.709Z,17.03
2018-07-07T01:19:28.108Z,15.67
2018-07-07T01:21:56.817Z,16.20
2018-07-07T01:24:25.252Z,15.57
2018-07-07T01:26:53.624Z,14.83
2018-07-07T01:29:22.000Z,14.97
2018-07-07T01:31:50.381Z,15.17
2018-07-07T01:34:18.758Z,14.90
2018-07-07T01:36:47.430Z,14.57
2018-07-07T01:39:15.962Z,14.63
2018-07-07T01:41:44.438Z,14.63
2018-07-07T01:44:13.112Z,14.63
2018-07-07T01:46:41.434Z,15.63
2018-07-07T01:49:09.869Z,15.50
2018-07-07T01:51:38.198Z,15.97
2018-07-07T01:54:06.600Z,15.17
2018-07-07T01:56:34.973Z,14.63
2018-07-07T01:59:03.321Z,14.60
2018-07-07T02:01:31.654Z,15.23
2018-07-07T02:04:00.088Z,15.73
2018-07-07T02:06:28.143Z,15.63
2018-07-07T02:08:56.508Z,15.23
2018-07-07T02:11:24.864Z,15.23
2018-07-07T02:13:53.207Z,15.50
2018-07-07T02:16:21.545Z,14.27
2018-07-07T02:18:49.964Z,16.07
2018-07-07T02:21:18.277Z,16.53
2018-07-07T02:23:46.640Z,16.63
2018-07-07T02:26:15.034Z,16.07
2018-07-07T02:28:43.380Z,17.30
2018-07-07T02:31:11.827Z,16.70
2018-07-07T02:33:40.238Z,15.10
2018-07-07T02:36:08.568Z,15.93
2018-07-07T02:38:36.915Z,15.57
2018-07-07T02:41:05.343Z,17.27
2018-07-07T02:43:33.726Z,15.77
2018-07-07T02:46:02.059Z,16.00
2018-07-07T02:48:30.437Z,15.90
2018-07-07T02:50:58.785Z,16.60
2018-07-07T02:53:28.011Z,17.60
2018-07-07T02:55:56.368Z,15.47
2018-07-07T02:58:24.763Z,15.80
2018-07-07T03:00:53.168Z,16.53
2018-07-07T03:03:21.617Z,15.67
2018-07-07T03:05:49.893Z,16.50
2018-07-07T03:08:18.219Z,16.37
2018-07-07T03:10:46.580Z,17.50
2018-07-07T03:13:14.940Z,16.10
2018-07-07T03:15:43.304Z,16.20
2018-07-07T03:18:11.766Z,17.77
2018-07-07T03:20:40.058Z,16.30
2018-07-07T03:23:08.476Z,15.80
2018-07-07T03:25:36.821Z,17.73
2018-07-07T03:28:05.204Z,17.33
2018-07-07T03:30:33.561Z,17.80
2018-07-07T03:33:01.921Z,17.13
2018-07-07T03:35:30.279Z,16.87
2018-07-07T03:37:58.626Z,18.63
2018-07-07T03:40:27.003Z,16.83
2018-07-07T03:42:55.357Z,18.13
2018-07-07T03:45:23.673Z,19.30
2018-07-07T03:47:52.123Z,17.57
2018-07-07T03:50:20.486Z,18.20
2018-07-07T03:52:48.825Z,19.00
2018-07-07T03:55:17.213Z,18.10
2018-07-07T03:57:45.277Z,18.27
2018-07-07T04:00:13.632Z,17.10
2018-07-07T04:02:42.034Z,18.00
2018-07-07T04:05:10.465Z,17.33
2018-07-07T04:07:38.851Z,16.80
2018-07-07T04:10:07.194Z,17.50
2018-07-07T04:12:35.579Z,15.33
2018-07-07T04:15:03.675Z,17.23
2018-07-07T04:17:32.094Z,17.43
2018-07-07T04:20:00.541Z,18.40
2018-07-07T04:22:29.485Z,17.33
2018-07-07T04:24:57.789Z,16.33
2018-07-07T04:27:26.110Z,17.73
2018-07-07T04:29:54.449Z,18.80
2018-07-07T04:32:22.810Z,17.23
2018-07-07T04:34:51.157Z,17.57
2018-07-07T04:37:19.591Z,17.20
2018-07-07T04:39:47.929Z,17.20
2018-07-07T04:42:16.280Z,17.43
2018-07-07T04:44:44.690Z,18.07
2018-07-07T04:47:13.089Z,16.90
2018-07-07T04:49:41.462Z,17.07
2018-07-07T04:52:09.847Z,16.93
2018-07-07T04:54:38.196Z,17.23
2018-07-07T04:57:06.538Z,18.10
2018-07-07T04:59:34.933Z,17.83
2018-07-07T05:02:03.274Z,15.40
2018-07-07T05:04:32.320Z,16.97
2018-07-07T05:07:00.740Z,16.90
2018-07-07T05:09:29.290Z,16.50
2018-07-07T05:11:57.366Z,17.40
2018-07-07T05:14:25.756Z,15.83
2018-07-07T05:16:54.174Z,16.43
2018-07-07T05:19:22.519Z,18.07
2018-07-07T05:21:50.859Z,17.43
2018-07-07T05:24:19.179Z,17.50
2018-07-07T05:26:47.562Z,18.27
2018-07-07T05:29:15.900Z,17.27
2018-07-07T05:31:44.404Z,18.03
2018-07-07T05:34:12.807Z,17.60
2018-07-07T05:36:41.222Z,17.10
2018-07-07T05:39:09.630Z,15.90
2018-07-07T05:41:38.190Z,16.57
2018-07-07T05:44:08.861Z,16.97
2018-07-07T05:46:37.321Z,17.00
2018-07-07T05:49:05.716Z,15.27
2018-07-07T05:51:35.977Z,15.27
2018-07-07T05:54:04.671Z,15.50
2018-07-07T05:56:37.291Z,15.80
2018-07-07T05:59:05.821Z,15.20
2018-07-07T06:01:34.284Z,14.07
2018-07-07T06:04:02.750Z,13.97
2018-07-07T06:06:32.689Z,14.87
2018-07-07T06:09:01.722Z,14.43
2018-07-07T06:11:30.091Z,12.50
2018-07-07T06:13:58.410Z,13.10
2018-07-07T06:16:27.095Z,12.83
2018-07-07T06:18:55.455Z,13.67
2018-07-07T06:21:23.938Z,13.73
2018-07-07T06:23:52.381Z,13.53
2018-07-07T06:26:21.799Z,14.97
2018-07-07T06:28:51.989Z,13.30
2018-07-07T06:31:20.570Z,12.90
2018-07-07T06:33:52.127Z,13.47
2018-07-07T06:36:22.571Z,13.30
2018-07-07T06:38:50.974Z,12.17
2018-07-07T06:41:19.338Z,12.90
2018-07-07T06:43:47.790Z,12.60
2018-07-07T06:46:16.174Z,11.50
2018-07-07T06:48:44.612Z,11.40
2018-07-07T06:51:13.089Z,11.67
2018-07-07T06:53:45.259Z,12.20
2018-07-07T06:56:13.783Z,12.90
2018-07-07T06:58:42.263Z,13.27
2018-07-07T07:01:10.725Z,12.93
2018-07-07T07:03:39.134Z,12.70
2018-07-07T07:06:07.504Z,13.27
2018-07-07T07:08:35.868Z,13.33
2018-07-07T07:11:04.248Z,14.13
2018-07-07T07:13:32.753Z,12.20
2018-07-07T07:16:01.149Z,12.40
2018-07-07T07:18:29.547Z,11.63
2018-07-07T07:20:57.897Z,11.97
2018-07-07T07:23:26.297Z,12.83
2018-07-07T07:25:54.678Z,11.77
2018-07-07T07:28:23.018Z,12.30
2018-07-07T07:30:51.417Z,11.53
2018-07-07T07:33:19.720Z,11.30
2018-07-07T07:35:48.093Z,13.40
2018-07-07T07:38:16.451Z,11.53
2018-07-07T07:40:44.844Z,12.90
2018-07-07T07:43:13.236Z,11.10
2018-07-07T07:45:41.359Z,11.20
2018-07-07T07:48:09.826Z,11.43
2018-07-07T07:50:38.206Z,11.13
2018-07-07T07:53:06.646Z,11.80
2018-07-07T07:55:35.071Z,10.90
2018-07-07T07:58:03.461Z,11.33
2018-07-07T08:00:31.875Z,10.30
2018-07-07T08:03:00.285Z,10.90
2018-07-07T08:05:28.616Z,11.57
2018-07-07T08:07:57.043Z,10.70
2018-07-07T08:10:25.480Z,10.40
2018-07-07T08:12:53.935Z,10.80
2018-07-07T08:15:22.311Z,11.30
2018-07-07T08:17:51.654Z,11.03
2018-07-07T08:20:20.079Z,11.90
2018-07-07T08:22:48.503Z,12.60
2018-07-07T08:25:16.878Z,13.27
2018-07-07T08:27:45.369Z,11.10
2018-07-07T08:30:14.430Z,11.63
2018-07-07T08:32:42.829Z,12.83
2018-07-07T08:35:11.299Z,13.00
2018-07-07T08:37:39.704Z,12.07
2018-07-07T08:40:08.090Z,14.03
2018-07-07T08:42:36.470Z,12.80
2018-07-07T08:45:05.081Z,11.80
2018-07-07T08:47:33.685Z,13.00
2018-07-07T08:50:02.152Z,11.80
2018-07-07T08:52:30.652Z,13.63
2018-07-07T08:54:59.461Z,12.10
2018-07-07T08:57:28.104Z,13.13
2018-07-07T08:59:56.479Z,11.20
2018-07-07T09:02:24.907Z,13.23
2018-07-07T09:04:53.308Z,12.63
2018-07-07T09:07:21.734Z,12.77
2018-07-07T09:09:50.166Z,11.83
2018-07-07T09:12:18.590Z,13.03
2018-07-07T09:14:47.123Z,11.67
2018-07-07T09:17:15.506Z,12.47
2018-07-07T09:19:43.844Z,12.63
2018-07-07T09:22:12.326Z,12.60
2018-07-07T09:24:40.722Z,11.30
2018-07-07T09:27:09.129Z,11.00
2018-07-07T09:29:37.542Z,10.03
2018-07-07T09:32:06.127Z,10.97
2018-07-07T09:34:34.737Z,10.90
2018-07-07T09:37:03.149Z,9.70
2018-07-07T09:39:31.625Z,9.83
2018-07-07T09:42:00.009Z,9.97
2018-07-07T09:44:28.346Z,10.70
2018-07-07T09:46:56.726Z,8.50
2018-07-07T09:49:25.071Z,9.47
2018-07-07T09:51:53.510Z,10.10
2018-07-07T09:54:21.936Z,9.00
2018-07-07T09:56:50.280Z,9.00
2018-07-07T09:59:18.667Z,8.60
2018-07-07T10:01:47.094Z,9.60
2018-07-07T10:04:15.407Z,9.87
2018-07-07T10:06:43.854Z,8.30
2018-07-07T10:09:12.424Z,8.60
2018-07-07T10:11:40.962Z,8.67
2018-07-07T10:14:09.319Z,8.50
2018-07-07T10:16:37.804Z,8.40
2018-07-07T10:19:06.236Z,8.70
2018-07-07T10:21:34.724Z,9.27
2018-07-07T10:24:02.870Z,8.50
2018-07-07T10:26:31.458Z,7.50
2018-07-07T10:28:59.508Z,7.67
2018-07-07T10:31:27.958Z,7.70
2018-07-07T10:33:56.415Z,8.43
2018-07-07T10:36:24.868Z,8.40
2018-07-07T10:38:53.209Z,8.07
2018-07-07T10:41:31.801Z,8.50
2018-07-07T10:44:00.226Z,7.93
2018-07-07T10:46:28.622Z,8.73
2018-07-07T10:48:57.089Z,7.53
2018-07-07T10:51:27.372Z,9.37
2018-07-07T10:53:56.018Z,7.83
2018-07-07T10:56:24.528Z,8.50
2018-07-07T10:58:53.070Z,8.03
2018-07-07T11:01:21.877Z,6.40
2018-07-07T11:03:49.968Z,5.67
2018-07-07T11:06:18.330Z,6.83
2018-07-07T11:08:46.722Z,7.57
2018-07-07T11:11:15.096Z,8.00
2018-07-07T11:13:43.494Z,9.30
2018-07-07T11:16:12.076Z,7.70
2018-07-07T11:18:47.436Z,7.90
2018-07-07T11:21:15.793Z,7.90
2018-07-07T11:23:44.771Z,7.87
2018-07-07T11:26:13.295Z,7.60
2018-07-07T11:28:41.936Z,6.13
2018-07-07T11:31:10.308Z,7.20
2018-07-07T11:33:38.675Z,7.10
2018-07-07T11:36:11.754Z,8.40
2018-07-07T11:38:40.183Z,8.37
2018-07-07T11:41:08.649Z,5.87
2018-07-07T11:43:37.024Z,6.43
2018-07-07T11:46:05.368Z,8.40
2018-07-07T11:48:33.715Z,6.90
2018-07-07T11:51:02.066Z,6.03
2018-07-07T11:53:30.465Z,6.97
2018-07-07T11:55:58.810Z,7.03
2018-07-07T11:58:27.196Z,6.43
2018-07-07T12:00:55.806Z,6.97
2018-07-07T12:03:24.215Z,6.37
2018-07-07T12:05:52.655Z,6.70
2018-07-07T12:08:21.327Z,7.10
2018-07-07T12:10:49.770Z,6.60
2018-07-07T12:13:18.316Z,7.43
2018-07-07T12:15:46.728Z,7.77
2018-07-07T12:18:16.283Z,7.10
2018-07-07T12:20:44.842Z,7.27
2018-07-07T12:23:16.098Z,7.60
2018-07-07T12:25:44.533Z,7.17
2018-07-07T12:28:12.912Z,7.50
2018-07-07T12:30:41.378Z,8.00
2018-07-07T12:33:09.790Z,7.10
2018-07-07T12:35:38.165Z,7.20
2018-07-07T12:38:06.556Z,7.83
2018-07-07T12:40:36.696Z,7.17
2018-07-07T12:43:05.162Z,8.70
2018-07-07T12:45:33.558Z,8.60
2018-07-07T12:48:02.380Z,7.73
2018-07-07T12:50:31.070Z,8.70
2018-07-07T12:52:59.520Z,8.43
2018-07-07T12:55:27.864Z,7.90
2018-07-07T12:57:56.676Z,8.20
2018-07-07T13:00:25.053Z,8.17
2018-07-07T13:02:53.407Z,8.80
2018-07-07T13:05:21.447Z,9.70
2018-07-07T13:07:49.774Z,8.70
2018-07-07T13:10:18.161Z,7.80
2018-07-07T13:12:46.245Z,7.40
2018-07-07T13:15:14.688Z,7.70
2018-07-07T13:17:43.085Z,8.60
2018-07-07T13:20:11.493Z,8.90
2018-07-07T13:22:39.874Z,8.13
2018-07-07T13:25:08.314Z,9.00
2018-07-07T13:27:36.754Z,8.57
2018-07-07T13:30:05.313Z,9.07
2018-07-07T13:32:33.754Z,7.90
2018-07-07T13:35:02.144Z,7.77
2018-07-07T13:37:30.580Z,7.00
2018-07-07T13:39:58.963Z,7.50
2018-07-07T13:42:27.385Z,7.93
2018-07-07T13:44:55.796Z,7.60
2018-07-07T13:47:24.251Z,6.90
2018-07-07T13:49:52.620Z,8.17
2018-07-07T13:52:21.085Z,8.60
2018-07-07T13:54:49.463Z,8.40
2018-07-07T13:57:17.837Z,8.40
2018-07-07T13:59:46.225Z,6.80
2018-07-07T14:02:14.700Z,7.40
2018-07-07T14:04:43.027Z,7.13
2018-07-07T14:07:11.365Z,7.70
2018-07-07T14:09:39.416Z,6.27
2018-07-07T14:12:07.764Z,7.20
2018-07-07T14:14:36.182Z,6.50
2018-07-07T14:17:04.725Z,6.90
2018-07-07T14:19:33.101Z,7.57
2018-07-07T14:22:01.478Z,8.63
2018-07-07T14:24:30.325Z,7.30
2018-07-07T14:26:58.448Z,6.70
2018-07-07T14:29:26.809Z,6.37
2018-07-07T14:31:55.365Z,7.10
2018-07-07T14:34:23.659Z,5.97
2018-07-07T14:36:52.045Z,6.00
2018-07-07T14:39:20.507Z,5.73
2018-07-07T14:41:54.264Z,6.00
2018-07-07T14:44:22.663Z,5.80
2018-07-07T14:46:51.337Z,6.00
2018-07-07T14:49:19.781Z,5.50
2018-07-07T14:51:48.311Z,5.83
2018-07-07T14:54:16.697Z,5.47
2018-07-07T14:56:44.825Z,5.67
2018-07-07T14:59:13.239Z,5.20
2018-07-07T15:01:41.650Z,4.93
2018-07-07T15:04:10.009Z,4.83
2018-07-07T15:06:38.433Z,5.27
2018-07-07T15:09:06.986Z,4.73
2018-07-07T15:11:35.337Z,4.47
2018-07-07T15:14:03.742Z,4.10
2018-07-07T15:16:32.153Z,3.90
2018-07-07T15:19:00.546Z,4.40
2018-07-07T15:21:28.932Z,3.70
2018-07-07T15:23:57.395Z,3.63
2018-07-07T15:26:25.807Z,4.13
2018-07-07T15:28:54.227Z,3.50
2018-07-07T15:31:22.342Z,4.50
2018-07-07T15:33:50.743Z,4.20
2018-07-07T15:36:19.192Z,3.30
2018-07-07T15:38:47.591Z,3.80
2018-07-07T15:41:16.036Z,4.10
2018-07-07T15:43:44.421Z,3.73
2018-07-07T15:46:12.868Z,3.57
2018-07-07T15:48:41.238Z,4.80
2018-07-07T15:51:09.368Z,14.57
2018-07-07T15:53:37.777Z,5.37
2018-07-07T15:56:06.173Z,5.97
2018-07-07T15:58:34.710Z,5.77
2018-07-07T16:01:03.067Z,6.10
2018-07-07T16:03:31.540Z,4.03
2018-07-07T16:05:59.942Z,3.67
2018-07-07T16:08:28.354Z,3.20
2018-07-07T16:10:56.788Z,3.73
2018-07-07T16:13:25.171Z,3.77
2018-07-07T16:15:53.577Z,3.67
2018-07-07T16:18:21.944Z,3.43
2018-07-07T16:20:50.371Z,3.77
2018-07-07T16:23:18.755Z,4.10
2018-07-07T16:25:47.138Z,4.90
2018-07-07T16:28:15.537Z,4.73
2018-07-07T16:30:44.293Z,4.40
2018-07-07T16:33:12.898Z,4.03
2018-07-07T16:35:41.866Z,3.40
2018-07-07T16:38:10.284Z,5.67
2018-07-07T16:40:38.837Z,4.20
2018-07-07T16:43:07.200Z,3.80
2018-07-07T16:45:35.782Z,3.40
2018-07-07T16:48:04.421Z,2.93
2018-07-07T16:50:32.970Z,2.70
2018-07-07T16:53:01.462Z,3.33
2018-07-07T16:55:29.865Z,7.40
2018-07-07T16:57:58.327Z,3.77
2018-07-07T17:00:26.738Z,3.20
2018-07-07T17:02:55.228Z,3.30
2018-07-07T17:05:23.730Z,4.13
2018-07-07T17:07:52.299Z,4.70
2018-07-07T17:10:21.046Z,3.00
2018-07-07T17:12:49.506Z,3.10
2018-07-07T17:15:17.966Z,4.00
2018-07-07T17:17:46.396Z,2.77
2018-07-07T17:20:14.831Z,3.07
2018-07-07T17:22:43.493Z,2.80
2018-07-07T17:25:12.030Z,2.93
2018-07-07T17:27:40.482Z,2.90
2018-07-07T17:30:09.000Z,2.97
2018-07-07T17:32:37.441Z,2.87
2018-07-07T17:35:06.131Z,3.33
2018-07-07T17:37:34.488Z,3.30
2018-07-07T17:40:03.031Z,3.30
2018-07-07T17:42:31.561Z,3.00
2018-07-07T17:45:00.818Z,3.60
2018-07-07T17:47:29.634Z,2.90
2018-07-07T17:50:00.094Z,3.17
2018-07-07T17:52:28.539Z,3.10
2018-07-07T17:54:57.048Z,2.80
2018-07-07T17:57:25.537Z,3.00
2018-07-07T17:59:54.936Z,2.93
2018-07-07T18:02:23.387Z,3.00
2018-07-07T18:04:51.904Z,2.90
2018-07-07T18:07:20.410Z,3.00
2018-07-07T18:09:48.780Z,2.80
2018-07-07T18:12:17.246Z,2.53
2018-07-07T18:14:45.343Z,3.03
2018-07-07T18:17:13.756Z,3.43
2018-07-07T18:19:42.128Z,2.90
2018-07-07T18:22:10.516Z,2.67
2018-07-07T18:24:38.917Z,2.83
2018-07-07T18:27:07.400Z,3.20
2018-07-07T18:29:35.827Z,3.00
2018-07-07T18:32:04.251Z,2.70
2018-07-07T18:34:32.344Z,2.80
2018-07-07T18:37:01.306Z,2.90
2018-07-07T18:39:29.683Z,2.83
2018-07-07T18:41:58.085Z,3.30
2018-07-07T18:44:26.496Z,3.07
2018-07-07T18:46:54.841Z,2.70
2018-07-07T18:49:23.205Z,3.00
2018-07-07T18:51:51.624Z,2.47
2018-07-07T18:54:20.044Z,3.30
2018-07-07T18:56:48.563Z,2.97
2018-07-07T18:59:16.927Z,3.17
2018-07-07T19:01:45.433Z,3.93
2018-07-07T19:04:13.806Z,3.27
2018-07-07T19:06:42.212Z,3.50
2018-07-07T19:09:10.800Z,3.33
2018-07-07T19:11:39.205Z,3.90
2018-07-07T19:14:07.652Z,3.17
2018-07-07T19:16:36.058Z,3.30
2018-07-07T19:19:04.489Z,3.50
2018-07-07T19:21:38.130Z,2.77
2018-07-07T19:24:11.754Z,3.00
2018-07-07T19:26:45.420Z,2.90
2018-07-07T19:29:13.829Z,2.93
2018-07-07T19:32:47.644Z,3.13
2018-07-07T19:35:21.300Z,2.80
2018-07-07T19:37:49.404Z,3.07
2018-07-07T19:40:17.870Z,3.10
2018-07-07T19:42:48.670Z,3.70
2018-07-07T19:45:17.103Z,2.73
2018-07-07T19:47:45.605Z,3.10
2018-07-07T19:50:14.027Z,3.10
2018-07-07T19:52:42.381Z,3.83
2018-07-07T19:55:10.863Z,3.00
2018-07-07T19:57:39.320Z,3.37
2018-07-07T20:00:07.738Z,2.63
2018-07-07T20:02:36.179Z,3.27
2018-07-07T20:05:04.546Z,4.10
2018-07-07T20:07:32.982Z,4.23
2018-07-07T20:10:01.386Z,3.67
2018-07-07T20:12:29.759Z,3.00
2018-07-07T20:14:58.177Z,3.27
2018-07-07T20:17:37.741Z,5.10
2018-07-07T20:20:42.147Z,7.13
2018-07-07T20:23:16.822Z,7.30
2018-07-07T20:25:50.637Z,4.63
2018-07-07T20:28:24.461Z,3.50
2018-07-07T20:30:57.519Z,3.50
2018-07-07T20:33:26.791Z,3.20
2018-07-07T20:35:55.206Z,3.57
2018-07-07T20:38:23.724Z,3.50
2018-07-07T20:40:52.129Z,3.43
2018-07-07T20:43:20.756Z,3.10
2018-07-07T20:45:49.180Z,2.80
2018-07-07T20:48:17.605Z,2.73
2018-07-07T20:50:46.199Z,3.27
2018-07-07T20:53:14.608Z,2.90
2018-07-07T20:55:43.043Z,3.10
2018-07-07T20:58:11.533Z,2.83
2018-07-07T21:00:39.879Z,3.40
2018-07-07T21:03:10.016Z,3.00
2018-07-07T21:05:38.395Z,3.23
2018-07-07T21:08:06.778Z,3.10
2018-07-07T21:10:35.160Z,2.87
2018-07-07T21:13:03.602Z,3.07
2018-07-07T21:15:32.008Z,3.00
2018-07-07T21:18:00.464Z,3.43
2018-07-07T21:20:28.777Z,3.60
2018-07-07T21:22:57.131Z,3.60
2018-07-07T21:25:25.527Z,3.47
2018-07-07T21:27:53.904Z,2.67
2018-07-07T21:30:22.290Z,4.03
2018-07-07T21:32:50.656Z,3.10
2018-07-07T21:35:19.036Z,3.70
2018-07-07T21:37:47.134Z,3.40
2018-07-07T21:40:15.511Z,3.80
2018-07-07T21:42:43.885Z,4.80
2018-07-07T21:45:12.972Z,3.40
2018-07-07T21:47:41.367Z,2.87
2018-07-07T21:50:09.834Z,3.07
2018-07-07T21:52:38.396Z,3.60
2018-07-07T21:55:07.073Z,3.30
2018-07-07T21:57:41.071Z,3.77
2018-07-07T22:00:09.555Z,3.40
2018-07-07T22:02:43.380Z,3.60
2018-07-07T22:07:22.550Z,2.90
2018-07-07T22:09:50.895Z,3.90
2018-07-07T22:12:19.297Z,3.87
2018-07-07T22:14:47.529Z,3.57
2018-07-07T22:17:19.384Z,3.30
2018-07-07T22:19:47.816Z,3.17
2018-07-07T22:22:16.233Z,4.10
2018-07-07T22:24:44.738Z,3.40
2018-07-07T22:27:14.339Z,3.40
2018-07-07T22:29:42.701Z,3.40
2018-07-07T22:32:16.428Z,3.33
2018-07-07T22:34:44.760Z,4.00
2018-07-07T22:37:13.229Z,3.67
2018-07-07T22:39:42.706Z,2.90
2018-07-07T22:42:12.206Z,4.10
2018-07-07T22:44:41.878Z,3.60
2018-07-07T22:47:10.310Z,3.70
2018-07-07T22:49:38.392Z,3.67
2018-07-07T22:52:07.476Z,3.60
2018-07-07T22:54:35.548Z,3.00
2018-07-07T22:57:03.935Z,3.10
2018-07-07T22:59:32.369Z,3.80
2018-07-07T23:02:01.276Z,3.50
2018-07-07T23:04:29.653Z,3.00
2018-07-07T23:06:58.097Z,3.67
2018-07-07T23:09:26.458Z,3.63
2018-07-07T23:11:54.786Z,3.60
2018-07-07T23:14:23.140Z,4.30
2018-07-07T23:16:51.512Z,3.50
2018-07-07T23:19:19.863Z,3.60
2018-07-07T23:21:48.210Z,4.20
2018-07-07T23:24:16.612Z,4.57
2018-07-07T23:26:44.979Z,3.97
2018-07-07T23:29:13.046Z,3.70
2018-07-07T23:31:41.421Z,3.90
2018-07-07T23:34:09.853Z,4.60
2018-07-07T23:36:38.243Z,3.83
2018-07-07T23:39:06.814Z,4.23
2018-07-07T23:41:35.216Z,4.80
2018-07-07T23:44:03.609Z,4.10
2018-07-07T23:46:31.976Z,4.00
2018-07-07T23:49:00.305Z,4.60
2018-07-07T23:51:28.755Z,4.23
2018-07-07T23:53:57.131Z,4.87
2018-07-07T23:56:25.543Z,4.40
2018-07-07T23:58:53.922Z,4.30
